createdAt,value
2022-08-18T00:01:27.667Z,99206.47
2022-08-18T00:06:32.648Z,99199.22
2022-08-18T00:11:41.197Z,99189.28
2022-08-18T00:16:43.754Z,99179.31
2022-08-18T00:21:45.395Z,99183.78
2022-08-18T00:26:47.175Z,99198.44
2022-08-18T00:31:51.224Z,99203.09
2022-08-18T00:36:52.841Z,99211.03
2022-08-18T00:41:54.656Z,99213.66
2022-08-18T00:46:56.448Z,99220.59
2022-08-18T00:52:00.799Z,99226.03
2022-08-18T00:57:06.698Z,99214.38
2022-08-18T01:02:12.906Z,99217.31
2022-08-18T01:07:20.720Z,99221.75
2022-08-18T01:12:44.028Z,99233.03
2022-08-18T01:18:02.731Z,99232.44
2022-08-18T01:23:12.165Z,99230.16
2022-08-18T01:28:14.673Z,99228.63
2022-08-18T01:33:18.605Z,99228.91
2022-08-18T01:38:26.194Z,99224.06
2022-08-18T01:43:27.876Z,99226.88
2022-08-18T01:48:34.359Z,99226.25
2022-08-18T01:53:37.378Z,99223.00
2022-08-18T01:58:39.016Z,99220.78
2022-08-18T02:03:46.733Z,99216.06
2022-08-18T02:08:49.912Z,99206.88
2022-08-18T02:13:55.601Z,99198.34
2022-08-18T02:18:57.274Z,99185.75
2022-08-18T02:23:59.103Z,99189.22
2022-08-18T02:29:00.716Z,99186.28
2022-08-18T02:34:02.743Z,99176.47
2022-08-18T02:39:04.527Z,99167.66
2022-08-18T02:44:07.673Z,99166.25
2022-08-18T02:49:09.469Z,99161.97
2022-08-18T02:54:11.543Z,99171.47
2022-08-18T02:59:15.967Z,99169.81
2022-08-18T03:04:29.618Z,99164.00
2022-08-18T03:09:33.838Z,99171.72
2022-08-18T03:14:37.417Z,99171.72
2022-08-18T03:19:39.123Z,99165.91
2022-08-18T03:24:41.189Z,99158.03
2022-08-18T03:29:42.994Z,99155.38
2022-08-18T03:34:44.933Z,99157.16
2022-08-18T03:39:46.724Z,99159.66
2022-08-18T03:44:48.616Z,99168.81
2022-08-18T03:49:50.269Z,99163.69
2022-08-18T03:54:51.942Z,99158.69
2022-08-18T03:59:54.843Z,99164.69
2022-08-18T04:04:56.482Z,99157.69
2022-08-18T04:09:58.678Z,99152.31
2022-08-18T04:15:00.314Z,99156.34
2022-08-18T04:20:01.954Z,99165.53
2022-08-18T04:25:03.841Z,99168.88
2022-08-18T04:30:06.801Z,99192.97
2022-08-18T04:35:12.382Z,99207.97
2022-08-18T04:40:15.826Z,99216.41
2022-08-18T04:45:17.537Z,99213.66
2022-08-18T04:50:19.728Z,99217.09
2022-08-18T04:55:22.200Z,99222.22
2022-08-18T05:00:24.017Z,99226.78
2022-08-18T05:05:27.519Z,99226.59
2022-08-18T05:10:29.361Z,99235.84
2022-08-18T05:15:46.913Z,99243.75
2022-08-18T05:20:55.226Z,99243.88
2022-08-18T05:26:00.674Z,99231.69
2022-08-18T05:31:29.453Z,99225.69
2022-08-18T05:36:50.296Z,99241.72
2022-08-18T05:41:56.048Z,99248.31
2022-08-18T05:47:18.072Z,99249.41
2022-08-18T05:52:26.209Z,99253.19
2022-08-18T05:57:32.966Z,99263.25
2022-08-18T06:02:48.037Z,99261.44
2022-08-18T06:07:56.996Z,99257.00
2022-08-18T06:13:01.284Z,99255.59
2022-08-18T06:18:17.870Z,99252.59
2022-08-18T06:23:36.080Z,99242.59
2022-08-18T06:28:54.012Z,99252.91
2022-08-18T06:34:10.807Z,99257.28
2022-08-18T06:39:39.615Z,99262.94
2022-08-18T06:44:50.504Z,99281.03
2022-08-18T06:50:07.269Z,99277.84
2022-08-18T06:55:15.899Z,99282.13
2022-08-18T07:00:17.473Z,99275.31
2022-08-18T07:05:28.640Z,99285.59
2022-08-18T07:10:40.415Z,99290.38
2022-08-18T07:15:45.718Z,99302.31
2022-08-18T07:20:55.745Z,99298.31
2022-08-18T07:26:06.586Z,99311.50
2022-08-18T07:31:17.036Z,99321.53
2022-08-18T07:36:23.258Z,99337.97
2022-08-18T07:41:32.155Z,99338.41
2022-08-18T07:46:46.096Z,99347.09
2022-08-18T07:51:54.289Z,99342.59
2022-08-18T07:57:03.288Z,99345.97
2022-08-18T08:02:25.964Z,99322.75
2022-08-18T08:07:38.744Z,99321.06
2022-08-18T08:12:51.810Z,99333.13
2022-08-18T08:18:36.458Z,99335.19
2022-08-18T08:23:45.036Z,99341.56
2022-08-18T08:28:56.157Z,99335.63
2022-08-18T08:34:23.037Z,99325.81
2022-08-18T08:39:34.162Z,99320.44
2022-08-18T08:44:59.193Z,99319.09
2022-08-18T08:50:07.199Z,99313.78
2022-08-18T08:55:29.525Z,99291.56
2022-08-18T09:00:31.458Z,99268.19
2022-08-18T09:05:44.072Z,99246.69
2022-08-18T09:11:04.078Z,99235.88
2022-08-18T09:16:43.482Z,99239.78
2022-08-18T09:21:54.089Z,99230.31
2022-08-18T09:27:22.994Z,99219.78
2022-08-18T09:32:25.999Z,99203.19
2022-08-18T09:37:42.198Z,99216.19
2022-08-18T09:48:32.687Z,99236.25
2022-08-18T09:50:37.043Z,99234.47
2022-08-18T09:53:52.773Z,99239.34
2022-08-18T09:59:03.060Z,99221.75
2022-08-18T10:04:16.283Z,99217.97
2022-08-18T10:09:37.124Z,99219.75
2022-08-18T10:14:58.469Z,99208.84
2022-08-18T10:20:27.807Z,99197.13
2022-08-18T10:25:38.643Z,99199.84
2022-08-18T10:30:57.604Z,99197.16
2022-08-18T10:36:03.223Z,99212.28
2022-08-18T10:41:27.122Z,99201.88
2022-08-18T10:46:39.641Z,99188.44
2022-08-18T10:52:01.391Z,99183.78
2022-08-18T10:57:10.669Z,99170.38
2022-08-18T11:02:42.898Z,99164.56
2022-08-18T11:13:17.527Z,99166.50
2022-08-18T11:18:30.211Z,99169.31
2022-08-18T11:23:31.991Z,99154.31
2022-08-18T11:28:35.954Z,99145.44
2022-08-18T11:33:42.038Z,99131.53
2022-08-18T11:38:56.114Z,99131.78
2022-08-18T11:44:00.213Z,99131.09
2022-08-18T11:49:16.336Z,99114.16
2022-08-18T11:54:24.768Z,99123.75
2022-08-18T11:59:52.183Z,99139.50
2022-08-18T12:05:03.134Z,99151.69
2022-08-18T12:10:30.116Z,99151.66
2022-08-18T12:15:44.299Z,99153.81
2022-08-18T12:20:49.498Z,99146.69
2022-08-18T12:25:53.449Z,99143.34
2022-08-18T12:30:56.191Z,99129.97
2022-08-18T12:35:59.149Z,99113.28
2022-08-18T12:41:01.695Z,99111.91
2022-08-18T12:46:05.354Z,99111.84
2022-08-18T12:51:10.042Z,99102.09
2022-08-18T12:56:26.093Z,99096.22
2022-08-18T13:01:28.205Z,99093.50
2022-08-18T13:06:31.384Z,99089.03
2022-08-18T13:11:33.597Z,99086.16
2022-08-18T13:16:54.040Z,99086.94
2022-08-18T13:21:57.246Z,99092.50
2022-08-18T13:26:59.069Z,99078.31
2022-08-18T13:32:00.889Z,99079.59
2022-08-18T13:37:02.593Z,99086.44
2022-08-18T13:42:21.510Z,99105.78
2022-08-18T13:47:32.068Z,99107.09
2022-08-18T13:52:54.241Z,99116.88
2022-08-18T13:57:56.417Z,99120.66
2022-08-18T14:03:02.079Z,99130.00
2022-08-18T14:08:05.496Z,99106.13
2022-08-18T14:13:18.515Z,99120.84
2022-08-18T14:18:28.578Z,99111.00
2022-08-18T14:23:53.036Z,99123.44
2022-08-18T14:28:55.478Z,99120.66
2022-08-18T14:33:59.734Z,99116.19
2022-08-18T14:39:06.117Z,99113.06
2022-08-18T14:44:14.832Z,99125.63
2022-08-18T14:49:28.564Z,99132.69
2022-08-18T14:54:31.746Z,99152.19
2022-08-18T14:59:37.483Z,99156.75
2022-08-18T15:04:53.250Z,99136.09
2022-08-18T15:10:15.270Z,99129.75
2022-08-18T15:15:18.824Z,99132.97
2022-08-18T15:20:29.745Z,99130.31
2022-08-18T15:25:51.057Z,99126.59
2022-08-18T15:31:16.580Z,99122.22
2022-08-18T15:36:16.717Z,99114.19
2022-08-18T15:41:32.598Z,99100.00
2022-08-18T15:46:38.794Z,99089.56
2022-08-18T15:51:43.044Z,99091.44
2022-08-18T15:56:48.769Z,99084.63
2022-08-18T16:02:00.958Z,99087.84
2022-08-18T16:07:02.624Z,99096.09
2022-08-18T16:12:04.590Z,99083.97
2022-08-18T16:17:13.097Z,99083.34
2022-08-18T16:22:19.553Z,99058.13
2022-08-18T16:27:23.593Z,99065.53
2022-08-18T16:32:25.224Z,99058.47
2022-08-18T16:37:27.596Z,99041.19
2022-08-18T16:42:32.996Z,99047.53
2022-08-18T16:47:41.927Z,99061.66
2022-08-18T16:52:43.884Z,99052.78
2022-08-18T16:58:04.863Z,99062.38
2022-08-18T17:03:25.932Z,99038.13
2022-08-18T17:08:27.916Z,99034.97
2022-08-18T17:13:29.838Z,99034.41
2022-08-18T17:18:31.752Z,99034.56
2022-08-18T17:23:34.203Z,99024.28
2022-08-18T17:28:52.608Z,99043.81
2022-08-18T17:34:02.923Z,99049.41
2022-08-18T17:39:09.677Z,99051.13
2022-08-18T17:44:12.788Z,99070.38
2022-08-18T17:49:22.525Z,99061.97
2022-08-18T17:54:29.781Z,99057.13
2022-08-18T17:59:45.577Z,99046.13
2022-08-18T18:04:53.501Z,99043.59
2022-08-18T18:10:03.021Z,99056.88
2022-08-18T18:15:09.172Z,99052.03
2022-08-18T18:20:15.592Z,99043.47
2022-08-18T18:25:34.779Z,99046.47
2022-08-18T18:30:36.992Z,99054.78
2022-08-18T18:35:55.510Z,99050.56
2022-08-18T18:41:00.567Z,99040.63
2022-08-18T18:46:29.858Z,99026.75
2022-08-18T18:51:56.587Z,99024.66
2022-08-18T18:56:59.061Z,99026.09
2022-08-18T19:02:33.897Z,99038.44
2022-08-18T19:08:12.388Z,99042.31
2022-08-18T19:13:33.428Z,99042.63
2022-08-18T19:19:35.920Z,99041.44
2022-08-18T19:24:19.392Z,99051.03
2022-08-18T19:29:29.978Z,99041.91
2022-08-18T19:34:36.029Z,99046.38
2022-08-18T19:40:01.024Z,99026.81
2022-08-18T19:45:20.895Z,99023.97
2022-08-18T19:50:53.837Z,99014.81
2022-08-18T19:55:58.325Z,99037.88
2022-08-18T20:01:13.299Z,99049.25
2022-08-18T20:06:34.541Z,99068.69
2022-08-18T20:12:13.035Z,99068.63
2022-08-18T20:17:22.965Z,99060.84
2022-08-18T20:22:25.079Z,99058.06
2022-08-18T20:27:36.548Z,99057.94
2022-08-18T20:32:38.548Z,99073.13
2022-08-18T20:37:42.649Z,99086.84
2022-08-18T20:42:56.257Z,99083.94
2022-08-18T20:48:27.710Z,99095.03
2022-08-18T20:53:50.328Z,99103.25
2022-08-18T20:59:03.934Z,99111.13
2022-08-18T21:04:10.525Z,99090.97
2022-08-18T21:09:18.526Z,99097.44
2022-08-18T21:14:25.875Z,99086.78
2022-08-18T21:19:31.589Z,99089.03
2022-08-18T21:24:39.052Z,99084.78
2022-08-18T21:29:49.022Z,99074.47
2022-08-18T21:34:51.442Z,99071.75
2022-08-18T21:39:56.384Z,99082.16
2022-08-18T21:45:00.783Z,99080.47
2022-08-18T21:50:11.422Z,99095.69
2022-08-18T21:55:31.054Z,99088.22
2022-08-18T22:00:38.642Z,99086.13
2022-08-18T22:05:57.985Z,99087.47
2022-08-18T22:11:51.854Z,99073.88
2022-08-18T22:17:35.033Z,99077.13
2022-08-18T22:22:55.393Z,99070.31
2022-08-18T22:27:59.178Z,99084.91
2022-08-18T22:33:00.996Z,99093.84
2022-08-18T22:38:02.636Z,99105.59
2022-08-18T22:43:05.039Z,99110.63
2022-08-18T22:48:06.685Z,99115.03
2022-08-18T22:53:08.561Z,99109.91
2022-08-18T22:58:10.771Z,99112.06
2022-08-18T23:03:13.179Z,99101.97
2022-08-18T23:08:14.912Z,99083.56
2022-08-18T23:13:17.246Z,99099.72
2022-08-18T23:18:21.305Z,99092.69
2022-08-18T23:23:26.272Z,99082.03
2022-08-18T23:28:27.949Z,99080.19
2022-08-18T23:33:29.612Z,99073.00
2022-08-18T23:38:31.701Z,99071.50
2022-08-18T23:43:35.919Z,99067.06
2022-08-18T23:48:37.520Z,99056.28
2022-08-18T23:53:39.141Z,99054.47
2022-08-18T23:58:41.169Z,99049.22
